sensor_id;sensor_type;location;lat;lon;timestamp;pressure;altitude;pressure_sealevel;temperature;humidity
7157;BME280;3620;49.862;8.758;2023-01-25T00:00:25;101102.16;;;3.62;99.01
7157;BME280;3620;49.862;8.758;2023-01-25T00:02:52;101101.25;;;3.60;98.49
7157;BME280;3620;49.862;8.758;2023-01-25T00:05:20;101088.38;;;3.73;98.57
7157;BME280;3620;49.862;8.758;2023-01-25T00:07:46;101089.16;;;3.65;98.76
7157;BME280;3620;49.862;8.758;2023-01-25T00:10:13;101083.25;;;3.78;98.52
7157;BME280;3620;49.862;8.758;2023-01-25T00:16:02;101088.38;;;3.73;97.78
7157;BME280;3620;49.862;8.758;2023-01-25T00:21:52;101088.97;;;3.50;99.89
7157;BME280;3620;49.862;8.758;2023-01-25T00:24:19;101083.78;;;3.50;99.97
7157;BME280;3620;49.862;8.758;2023-01-25T00:26:47;101085.66;;;3.60;99.47
7157;BME280;3620;49.862;8.758;2023-01-25T00:29:14;101091.69;;;3.57;99.91
7157;BME280;3620;49.862;8.758;2023-01-25T00:31:49;101090.44;;;4.00;97.97
7157;BME280;3620;49.862;8.758;2023-01-25T00:34:41;101079.28;;;4.10;96.83
7157;BME280;3620;49.862;8.758;2023-01-25T00:37:18;101082.44;;;3.82;98.79
7157;BME280;3620;49.862;8.758;2023-01-25T00:39:46;101087.66;;;3.85;97.74
7157;BME280;3620;49.862;8.758;2023-01-25T00:42:13;101082.28;;;3.70;98.88
7157;BME280;3620;49.862;8.758;2023-01-25T00:44:40;101078.97;;;3.83;97.96
7157;BME280;3620;49.862;8.758;2023-01-25T00:47:08;101071.81;;;3.64;99.06
7157;BME280;3620;49.862;8.758;2023-01-25T00:49:35;101074.44;;;3.65;98.62
7157;BME280;3620;49.862;8.758;2023-01-25T00:52:03;101072.75;;;3.70;98.85
7157;BME280;3620;49.862;8.758;2023-01-25T00:54:31;101069.91;;;3.51;99.52
7157;BME280;3620;49.862;8.758;2023-01-25T00:56:58;101069.28;;;3.71;98.80
7157;BME280;3620;49.862;8.758;2023-01-25T00:59:24;101070.06;;;3.63;98.93
7157;BME280;3620;49.862;8.758;2023-01-25T01:01:52;101071.53;;;3.43;100.00
7157;BME280;3620;49.862;8.758;2023-01-25T01:04:19;101071.00;;;3.68;99.52
7157;BME280;3620;49.862;8.758;2023-01-25T01:06:49;101067.47;;;3.64;100.00
7157;BME280;3620;49.862;8.758;2023-01-25T01:09:17;101066.25;;;3.37;100.00
7157;BME280;3620;49.862;8.758;2023-01-25T01:11:46;101071.50;;;3.40;100.00
7157;BME280;3620;49.862;8.758;2023-01-25T01:14:12;101061.13;;;3.43;100.00
7157;BME280;3620;49.862;8.758;2023-01-25T01:16:39;101064.66;;;3.48;100.00
7157;BME280;3620;49.862;8.758;2023-01-25T01:19:06;101061.31;;;3.58;100.00
7157;BME280;3620;49.862;8.758;2023-01-25T01:21:32;101062.31;;;3.67;100.00
7157;BME280;3620;49.862;8.758;2023-01-25T01:23:59;101066.69;;;3.70;99.36
7157;BME280;3620;49.862;8.758;2023-01-25T01:26:25;101063.66;;;3.38;100.00
7157;BME280;3620;49.862;8.758;2023-01-25T01:28:53;101064.56;;;3.39;100.00
7157;BME280;3620;49.862;8.758;2023-01-25T01:31:22;101065.63;;;3.54;100.00
7157;BME280;3620;49.862;8.758;2023-01-25T01:33:49;101055.91;;;3.40;100.00
7157;BME280;3620;49.862;8.758;2023-01-25T01:36:18;101060.63;;;3.72;100.00
7157;BME280;3620;49.862;8.758;2023-01-25T01:38:45;101059.63;;;3.60;100.00
7157;BME280;3620;49.862;8.758;2023-01-25T01:41:13;101052.63;;;3.56;100.00
7157;BME280;3620;49.862;8.758;2023-01-25T01:43:40;101047.41;;;3.53;100.00
7157;BME280;3620;49.862;8.758;2023-01-25T01:46:13;101056.03;;;3.52;100.00
7157;BME280;3620;49.862;8.758;2023-01-25T01:48:44;101049.06;;;3.48;100.00
7157;BME280;3620;49.862;8.758;2023-01-25T01:51:16;101035.34;;;3.61;100.00
7157;BME280;3620;49.862;8.758;2023-01-25T01:53:48;101037.38;;;3.86;100.00
7157;BME280;3620;49.862;8.758;2023-01-25T01:56:18;101039.00;;;3.78;99.83
7157;BME280;3620;49.862;8.758;2023-01-25T01:58:46;101037.72;;;3.41;100.00
7157;BME280;3620;49.862;8.758;2023-01-25T02:01:15;101041.44;;;3.61;100.00
7157;BME280;3620;49.862;8.758;2023-01-25T02:03:42;101042.38;;;3.68;100.00
7157;BME280;3620;49.862;8.758;2023-01-25T02:06:13;101033.88;;;3.87;99.77
7157;BME280;3620;49.862;8.758;2023-01-25T02:08:40;101037.41;;;3.92;99.75
7157;BME280;3620;49.862;8.758;2023-01-25T02:11:08;101037.22;;;3.76;100.00
7157;BME280;3620;49.862;8.758;2023-01-25T02:13:36;101034.72;;;3.82;100.00
7157;BME280;3620;49.862;8.758;2023-01-25T02:16:04;101032.28;;;3.98;99.50
7157;BME280;3620;49.862;8.758;2023-01-25T02:18:32;101034.56;;;3.69;100.00
7157;BME280;3620;49.862;8.758;2023-01-25T02:20:59;101038.81;;;3.60;100.00
7157;BME280;3620;49.862;8.758;2023-01-25T02:23:31;101040.66;;;3.70;100.00
7157;BME280;3620;49.862;8.758;2023-01-25T02:26:03;101033.69;;;3.69;100.00
7157;BME280;3620;49.862;8.758;2023-01-25T02:28:34;101039.75;;;3.66;100.00
7157;BME280;3620;49.862;8.758;2023-01-25T02:31:01;101034.88;;;3.97;100.00
7157;BME280;3620;49.862;8.758;2023-01-25T02:33:28;101025.28;;;3.93;99.47
7157;BME280;3620;49.862;8.758;2023-01-25T02:35:58;101026.97;;;3.86;100.00
7157;BME280;3620;49.862;8.758;2023-01-25T02:38:25;101020.13;;;3.97;100.00
7157;BME280;3620;49.862;8.758;2023-01-25T02:40:56;101019.94;;;3.81;99.54
7157;BME280;3620;49.862;8.758;2023-01-25T02:43:28;101025.00;;;3.67;100.00
7157;BME280;3620;49.862;8.758;2023-01-25T02:46:00;101028.47;;;3.69;100.00
7157;BME280;3620;49.862;8.758;2023-01-25T02:48:28;101022.50;;;3.76;100.00
7157;BME280;3620;49.862;8.758;2023-01-25T02:50:55;101027.00;;;3.91;100.00
7157;BME280;3620;49.862;8.758;2023-01-25T02:53:21;101020.13;;;3.97;100.00
7157;BME280;3620;49.862;8.758;2023-01-25T02:55:48;101018.38;;;3.96;100.00
7157;BME280;3620;49.862;8.758;2023-01-25T02:58:14;101019.16;;;3.89;100.00
7157;BME280;3620;49.862;8.758;2023-01-25T03:00:42;101017.69;;;4.15;99.78
7157;BME280;3620;49.862;8.758;2023-01-25T03:03:09;101019.38;;;4.12;98.80
7157;BME280;3620;49.862;8.758;2023-01-25T03:05:35;101012.66;;;4.36;98.88
7157;BME280;3620;49.862;8.758;2023-01-25T03:08:02;101008.03;;;4.05;98.47
7157;BME280;3620;49.862;8.758;2023-01-25T03:10:28;101007.03;;;3.88;99.21
7157;BME280;3620;49.862;8.758;2023-01-25T03:12:55;101008.59;;;3.74;98.90
7157;BME280;3620;49.862;8.758;2023-01-25T03:15:21;101004.84;;;3.49;100.00
7157;BME280;3620;49.862;8.758;2023-01-25T03:17:49;101009.88;;;3.34;100.00
7157;BME280;3620;49.862;8.758;2023-01-25T03:20:16;100999.69;;;3.52;100.00
7157;BME280;3620;49.862;8.758;2023-01-25T03:22:42;101008.88;;;3.22;100.00
7157;BME280;3620;49.862;8.758;2023-01-25T03:25:09;101003.06;;;3.44;100.00
7157;BME280;3620;49.862;8.758;2023-01-25T03:27:35;101001.34;;;3.46;100.00
7157;BME280;3620;49.862;8.758;2023-01-25T03:30:02;100999.75;;;3.57;100.00
7157;BME280;3620;49.862;8.758;2023-01-25T03:32:29;100993.75;;;3.64;100.00
7157;BME280;3620;49.862;8.758;2023-01-25T03:34:57;101003.72;;;3.28;100.00
7157;BME280;3620;49.862;8.758;2023-01-25T03:37:24;100998.69;;;3.40;100.00
7157;BME280;3620;49.862;8.758;2023-01-25T03:39:54;100995.22;;;3.41;100.00
7157;BME280;3620;49.862;8.758;2023-01-25T03:42:21;101001.66;;;3.03;100.00
7157;BME280;3620;49.862;8.758;2023-01-25T03:44:48;100992.44;;;3.26;100.00
7157;BME280;3620;49.862;8.758;2023-01-25T03:47:14;100989.78;;;3.20;100.00
7157;BME280;3620;49.862;8.758;2023-01-25T03:49:41;100989.84;;;3.26;100.00
7157;BME280;3620;49.862;8.758;2023-01-25T03:52:09;100988.59;;;2.98;100.00
7157;BME280;3620;49.862;8.758;2023-01-25T03:54:35;100987.94;;;3.13;100.00
7157;BME280;3620;49.862;8.758;2023-01-25T03:57:02;100985.47;;;3.23;100.00
7157;BME280;3620;49.862;8.758;2023-01-25T03:59:28;100984.69;;;3.29;100.00
7157;BME280;3620;49.862;8.758;2023-01-25T04:01:55;100984.81;;;3.41;100.00
7157;BME280;3620;49.862;8.758;2023-01-25T04:04:22;100989.94;;;3.35;100.00
7157;BME280;3620;49.862;8.758;2023-01-25T04:06:48;100991.56;;;3.24;100.00
7157;BME280;3620;49.862;8.758;2023-01-25T04:09:16;100982.84;;;3.22;100.00
7157;BME280;3620;49.862;8.758;2023-01-25T04:11:43;100984.69;;;3.32;100.00
7157;BME280;3620;49.862;8.758;2023-01-25T04:14:10;100990.69;;;3.25;100.00
7157;BME280;3620;49.862;8.758;2023-01-25T04:16:36;100986.41;;;3.30;100.00
7157;BME280;3620;49.862;8.758;2023-01-25T04:19:03;100989.78;;;3.20;100.00
7157;BME280;3620;49.862;8.758;2023-01-25T04:21:29;100972.22;;;3.02;100.00
7157;BME280;3620;49.862;8.758;2023-01-25T04:23:56;100979.00;;;2.92;100.00
7157;BME280;3620;49.862;8.758;2023-01-25T04:26:24;100972.88;;;2.89;100.00
7157;BME280;3620;49.862;8.758;2023-01-25T04:28:51;100972.81;;;2.81;100.00
7157;BME280;3620;49.862;8.758;2023-01-25T04:31:17;100970.16;;;2.78;100.00
7157;BME280;3620;49.862;8.758;2023-01-25T04:33:43;100973.63;;;2.80;100.00
7157;BME280;3620;49.862;8.758;2023-01-25T04:36:10;100967.03;;;3.04;100.00
7157;BME280;3620;49.862;8.758;2023-01-25T04:38:36;100975.75;;;3.09;100.00
7157;BME280;3620;49.862;8.758;2023-01-25T04:41:03;100968.69;;;2.98;100.00
7157;BME280;3620;49.862;8.758;2023-01-25T04:43:31;100966.19;;;3.06;100.00
7157;BME280;3620;49.862;8.758;2023-01-25T04:46:00;100971.59;;;3.23;100.00
7157;BME280;3620;49.862;8.758;2023-01-25T04:48:26;100970.50;;;3.04;100.00
7157;BME280;3620;49.862;8.758;2023-01-25T04:50:53;100973.06;;;3.03;100.00
7157;BME280;3620;49.862;8.758;2023-01-25T04:53:19;100968.81;;;3.08;100.00
7157;BME280;3620;49.862;8.758;2023-01-25T04:55:46;100963.59;;;3.08;100.00
7157;BME280;3620;49.862;8.758;2023-01-25T04:58:13;100958.34;;;3.05;100.00
7157;BME280;3620;49.862;8.758;2023-01-25T05:00:41;100950.41;;;2.91;100.00
7157;BME280;3620;49.862;8.758;2023-01-25T05:03:08;100954.97;;;3.10;100.00
7157;BME280;3620;49.862;8.758;2023-01-25T05:05:34;100951.38;;;2.97;100.00
7157;BME280;3620;49.862;8.758;2023-01-25T05:08:00;100948.13;;;3.17;100.00
7157;BME280;3620;49.862;8.758;2023-01-25T05:10:27;100937.88;;;3.32;100.00
7157;BME280;3620;49.862;8.758;2023-01-25T05:12:53;100939.75;;;3.45;100.00
7157;BME280;3620;49.862;8.758;2023-01-25T05:15:20;100930.88;;;3.25;100.00
7157;BME280;3620;49.862;8.758;2023-01-25T05:17:48;100927.47;;;3.29;100.00
7157;BME280;3620;49.862;8.758;2023-01-25T05:20:15;100928.16;;;3.16;100.00
7157;BME280;3620;49.862;8.758;2023-01-25T05:22:41;100917.13;;;3.35;100.00
7157;BME280;3620;49.862;8.758;2023-01-25T05:25:08;100915.47;;;3.40;100.00
7157;BME280;3620;49.862;8.758;2023-01-25T05:27:55;100915.47;;;3.43;100.00
7157;BME280;3620;49.862;8.758;2023-01-25T05:30:20;100913.88;;;3.57;100.00
7157;BME280;3620;49.862;8.758;2023-01-25T05:32:49;100905.13;;;3.49;100.00
7157;BME280;3620;49.862;8.758;2023-01-25T05:35:16;100911.94;;;3.38;100.00
7157;BME280;3620;49.862;8.758;2023-01-25T05:37:42;100911.50;;;2.97;100.00
7157;BME280;3620;49.862;8.758;2023-01-25T05:40:10;100913.06;;;2.84;100.00
7157;BME280;3620;49.862;8.758;2023-01-25T05:42:37;100912.38;;;3.01;100.00
7157;BME280;3620;49.862;8.758;2023-01-25T05:45:04;100907.97;;;2.93;100.00
7157;BME280;3620;49.862;8.758;2023-01-25T05:47:31;100908.19;;;3.12;100.00
7157;BME280;3620;49.862;8.758;2023-01-25T05:49:58;100914.31;;;3.17;100.00
7157;BME280;3620;49.862;8.758;2023-01-25T05:52:25;100915.09;;;3.07;100.00
7157;BME280;3620;49.862;8.758;2023-01-25T05:54:52;100912.72;;;3.28;100.00
7157;BME280;3620;49.862;8.758;2023-01-25T05:57:18;100909.84;;;3.02;100.00
7157;BME280;3620;49.862;8.758;2023-01-25T05:59:45;100912.56;;;3.14;100.00
7157;BME280;3620;49.862;8.758;2023-01-25T06:02:11;100910.16;;;3.34;100.00
7157;BME280;3620;49.862;8.758;2023-01-25T06:04:38;100916.97;;;3.23;100.00
7157;BME280;3620;49.862;8.758;2023-01-25T06:07:06;100911.09;;;3.37;100.00
7157;BME280;3620;49.862;8.758;2023-01-25T06:09:32;100911.69;;;3.14;100.00
7157;BME280;3620;49.862;8.758;2023-01-25T06:11:59;100916.97;;;3.20;100.00
7157;BME280;3620;49.862;8.758;2023-01-25T06:14:25;100911.88;;;3.32;100.00
7157;BME280;3620;49.862;8.758;2023-01-25T06:16:52;100910.84;;;3.16;100.00
7157;BME280;3620;49.862;8.758;2023-01-25T06:19:18;100918.16;;;3.50;100.00
7157;BME280;3620;49.862;8.758;2023-01-25T06:21:45;100914.47;;;3.29;100.00
7157;BME280;3620;49.862;8.758;2023-01-25T06:24:12;100917.28;;;3.50;100.00
7157;BME280;3620;49.862;8.758;2023-01-25T06:26:39;100910.53;;;3.70;100.00
7157;BME280;3620;49.862;8.758;2023-01-25T06:29:06;100914.59;;;3.42;100.00
7157;BME280;3620;49.862;8.758;2023-01-25T06:31:32;100911.28;;;3.57;100.00
7157;BME280;3620;49.862;8.758;2023-01-25T06:33:59;100907.97;;;3.76;100.00
7157;BME280;3620;49.862;8.758;2023-01-25T06:36:29;100907.56;;;3.34;100.00
7157;BME280;3620;49.862;8.758;2023-01-25T06:38:55;100906.13;;;2.83;100.00
7157;BME280;3620;49.862;8.758;2023-01-25T06:41:23;100901.09;;;2.95;100.00
7157;BME280;3620;49.862;8.758;2023-01-25T06:43:51;100902.81;;;2.96;100.00
7157;BME280;3620;49.862;8.758;2023-01-25T06:46:18;100902.66;;;2.84;100.00
7157;BME280;3620;49.862;8.758;2023-01-25T06:48:45;100904.56;;;2.97;100.00
7157;BME280;3620;49.862;8.758;2023-01-25T06:51:13;100907.31;;;3.10;100.00
7157;BME280;3620;49.862;8.758;2023-01-25T06:53:42;100906.53;;;3.17;100.00
7157;BME280;3620;49.862;8.758;2023-01-25T06:56:11;100904.69;;;3.07;100.00
7157;BME280;3620;49.862;8.758;2023-01-25T06:58:39;100903.00;;;3.12;100.00
7157;BME280;3620;49.862;8.758;2023-01-25T07:01:09;100899.50;;;3.10;100.00
7157;BME280;3620;49.862;8.758;2023-01-25T07:03:37;100897.78;;;3.09;100.00
7157;BME280;3620;49.862;8.758;2023-01-25T07:06:05;100903.00;;;3.12;100.00
7157;BME280;3620;49.862;8.758;2023-01-25T07:08:33;100896.97;;;3.16;100.00
7157;BME280;3620;49.862;8.758;2023-01-25T07:11:01;100900.22;;;2.96;100.00
7157;BME280;3620;49.862;8.758;2023-01-25T07:13:29;100904.75;;;3.16;100.00
7157;BME280;3620;49.862;8.758;2023-01-25T07:15:59;100904.75;;;3.16;100.00
7157;BME280;3620;49.862;8.758;2023-01-25T07:18:27;100907.41;;;3.20;100.00
7157;BME280;3620;49.862;8.758;2023-01-25T07:21:01;100907.38;;;3.16;100.00
7157;BME280;3620;49.862;8.758;2023-01-25T07:23:29;100911.72;;;3.18;100.00
7157;BME280;3620;49.862;8.758;2023-01-25T07:25:57;100905.53;;;3.06;100.00
7157;BME280;3620;49.862;8.758;2023-01-25T07:28:24;100902.13;;;3.11;100.00
7157;BME280;3620;49.862;8.758;2023-01-25T07:30:50;100902.81;;;2.98;100.00
7157;BME280;3620;49.862;8.758;2023-01-25T07:33:18;100901.16;;;3.05;100.00
7157;BME280;3620;49.862;8.758;2023-01-25T07:35:45;100903.16;;;3.27;100.00
7157;BME280;3620;49.862;8.758;2023-01-25T07:38:12;100911.38;;;2.89;100.00
7157;BME280;3620;49.862;8.758;2023-01-25T07:40:38;100901.31;;;3.17;100.00
7157;BME280;3620;49.862;8.758;2023-01-25T07:43:05;100906.69;;;3.32;100.00
7157;BME280;3620;49.862;8.758;2023-01-25T07:45:31;100906.47;;;3.11;100.00
7157;BME280;3620;49.862;8.758;2023-01-25T07:47:59;100909.16;;;3.20;100.00
7157;BME280;3620;49.862;8.758;2023-01-25T07:50:27;100903.81;;;3.09;100.00
7157;BME280;3620;49.862;8.758;2023-01-25T07:52:54;100903.97;;;3.23;100.00
7157;BME280;3620;49.862;8.758;2023-01-25T07:55:20;100906.31;;;2.98;100.00
7157;BME280;3620;49.862;8.758;2023-01-25T07:57:47;100904.69;;;3.07;100.00
7157;BME280;3620;49.862;8.758;2023-01-25T08:00:14;100911.50;;;2.98;100.00
7157;BME280;3620;49.862;8.758;2023-01-25T08:02:41;100909.94;;;3.13;100.00
7157;BME280;3620;49.862;8.758;2023-01-25T08:05:08;100915.31;;;3.28;100.00
7157;BME280;3620;49.862;8.758;2023-01-25T08:07:36;100915.38;;;3.34;100.00
7157;BME280;3620;49.862;8.758;2023-01-25T08:10:04;100900.69;;;3.40;100.00
7157;BME280;3620;49.862;8.758;2023-01-25T08:12:31;100905.72;;;3.22;100.00
7157;BME280;3620;49.862;8.758;2023-01-25T08:14:58;100902.31;;;3.29;100.00
7157;BME280;3620;49.862;8.758;2023-01-25T08:17:25;100896.16;;;3.20;100.00
7157;BME280;3620;49.862;8.758;2023-01-25T08:19:55;100894.97;;;2.90;100.00
7157;BME280;3620;49.862;8.758;2023-01-25T08:22:22;100888.00;;;2.89;100.00
7157;BME280;3620;49.862;8.758;2023-01-25T08:24:50;100894.28;;;3.07;100.00
7157;BME280;3620;49.862;8.758;2023-01-25T08:27:16;100892.63;;;3.15;100.00
7157;BME280;3620;49.862;8.758;2023-01-25T08:29:43;100895.13;;;3.04;100.00
7157;BME280;3620;49.862;8.758;2023-01-25T08:32:09;100893.25;;;2.92;100.00
7157;BME280;3620;49.862;8.758;2023-01-25T08:34:36;100891.81;;;2.48;100.00
7157;BME280;3620;49.862;8.758;2023-01-25T08:37:03;100890.16;;;2.53;100.00
7157;BME280;3620;49.862;8.758;2023-01-25T08:39:30;100888.09;;;2.97;100.00
7157;BME280;3620;49.862;8.758;2023-01-25T08:41:58;100886.41;;;2.99;100.00
7157;BME280;3620;49.862;8.758;2023-01-25T08:44:25;100883.69;;;2.88;100.00
7157;BME280;3620;49.862;8.758;2023-01-25T08:46:51;100886.03;;;2.70;100.00
7157;BME280;3620;49.862;8.758;2023-01-25T08:49:18;100880.09;;;2.80;100.00
7157;BME280;3620;49.862;8.758;2023-01-25T08:51:44;100881.81;;;2.78;100.00
7157;BME280;3620;49.862;8.758;2023-01-25T08:54:12;100886.88;;;2.66;100.00
7157;BME280;3620;49.862;8.758;2023-01-25T08:56:39;100884.28;;;2.69;100.00
7157;BME280;3620;49.862;8.758;2023-01-25T08:59:09;100879.91;;;2.65;100.00
7157;BME280;3620;49.862;8.758;2023-01-25T09:01:36;100877.38;;;2.68;100.00
7157;BME280;3620;49.862;8.758;2023-01-25T09:04:03;100872.25;;;2.76;100.00
7157;BME280;3620;49.862;8.758;2023-01-25T09:06:29;100870.63;;;2.85;100.00
7157;BME280;3620;49.862;8.758;2023-01-25T09:08:57;100866.97;;;2.68;100.00
7157;BME280;3620;49.862;8.758;2023-01-25T09:11:24;100867.84;;;2.70;100.00
7157;BME280;3620;49.862;8.758;2023-01-25T09:13:50;100868.69;;;2.69;100.00
7157;BME280;3620;49.862;8.758;2023-01-25T09:16:20;100865.91;;;2.54;100.00
7157;BME280;3620;49.862;8.758;2023-01-25T09:18:53;100869.59;;;2.71;100.00
7157;BME280;3620;49.862;8.758;2023-01-25T09:21:20;100870.75;;;2.93;100.00
7157;BME280;3620;49.862;8.758;2023-01-25T09:23:47;100864.84;;;3.09;100.00
7157;BME280;3620;49.862;8.758;2023-01-25T09:26:15;100860.72;;;3.26;100.00
7157;BME280;3620;49.862;8.758;2023-01-25T09:28:44;100868.25;;;3.04;100.00
7157;BME280;3620;49.862;8.758;2023-01-25T09:31:11;100866.28;;;2.84;100.00
7157;BME280;3620;49.862;8.758;2023-01-25T09:33:40;100865.38;;;2.81;100.00
7157;BME280;3620;49.862;8.758;2023-01-25T09:36:06;100859.53;;;2.98;100.00
7157;BME280;3620;49.862;8.758;2023-01-25T09:38:33;100866.59;;;3.09;100.00
7157;BME280;3620;49.862;8.758;2023-01-25T09:41:08;100867.31;;;2.98;100.00
7157;BME280;3620;49.862;8.758;2023-01-25T09:43:49;100866.59;;;3.09;100.00
7157;BME280;3620;49.862;8.758;2023-01-25T09:46:25;100861.94;;;2.82;100.00
7157;BME280;3620;49.862;8.758;2023-01-25T09:49:02;100858.53;;;2.86;100.00
7157;BME280;3620;49.862;8.758;2023-01-25T09:51:45;100853.53;;;3.04;100.00
7157;BME280;3620;49.862;8.758;2023-01-25T09:54:15;100861.44;;;3.15;100.00
7157;BME280;3620;49.862;8.758;2023-01-25T09:56:43;100859.47;;;2.92;100.00
7157;BME280;3620;49.862;8.758;2023-01-25T09:59:17;100856.94;;;2.98;100.00
7157;BME280;3620;49.862;8.758;2023-01-25T10:01:48;100856.09;;;3.00;100.00
7157;BME280;3620;49.862;8.758;2023-01-25T10:04:20;100853.75;;;3.24;100.00
7157;BME280;3620;49.862;8.758;2023-01-25T10:06:51;100856.19;;;3.09;100.00
7157;BME280;3620;49.862;8.758;2023-01-25T10:09:29;100856.28;;;3.19;100.00
7157;BME280;3620;49.862;8.758;2023-01-25T10:12:01;100857.06;;;3.11;100.00
7157;BME280;3620;49.862;8.758;2023-01-25T10:14:29;100854.53;;;3.17;100.00
7157;BME280;3620;49.862;8.758;2023-01-25T10:17:05;100851.25;;;3.36;100.00
7157;BME280;3620;49.862;8.758;2023-01-25T10:19:49;100846.25;;;3.57;100.00
7157;BME280;3620;49.862;8.758;2023-01-25T10:22:22;100839.75;;;3.14;100.00
7157;BME280;3620;49.862;8.758;2023-01-25T10:25:03;100839.03;;;3.26;100.00
7157;BME280;3620;49.862;8.758;2023-01-25T10:27:41;100841.81;;;3.44;100.00
7157;BME280;3620;49.862;8.758;2023-01-25T10:30:21;100834.78;;;3.35;100.00
7157;BME280;3620;49.862;8.758;2023-01-25T10:32:51;100827.75;;;3.24;100.00
7157;BME280;3620;49.862;8.758;2023-01-25T10:35:25;100827.00;;;3.37;100.00
7157;BME280;3620;49.862;8.758;2023-01-25T10:37:52;100821.97;;;3.58;100.00
7157;BME280;3620;49.862;8.758;2023-01-25T10:40:21;100816.72;;;3.52;100.00
7157;BME280;3620;49.862;8.758;2023-01-25T10:42:53;100807.94;;;3.41;100.00
7157;BME280;3620;49.862;8.758;2023-01-25T10:45:20;100807.88;;;3.32;100.00
7157;BME280;3620;49.862;8.758;2023-01-25T10:47:49;100801.16;;;3.55;100.00
7157;BME280;3620;49.862;8.758;2023-01-25T10:50:45;100790.00;;;3.76;99.49
7157;BME280;3620;49.862;8.758;2023-01-25T10:53:22;100788.41;;;3.93;98.69
7157;BME280;3620;49.862;8.758;2023-01-25T10:55:57;100791.91;;;4.01;96.76
7157;BME280;3620;49.862;8.758;2023-01-25T10:58:30;100781.28;;;3.67;96.70
7157;BME280;3620;49.862;8.758;2023-01-25T11:00:57;100779.53;;;3.65;97.68
7157;BME280;3620;49.862;8.758;2023-01-25T11:03:33;100776.03;;;3.64;98.66
7157;BME280;3620;49.862;8.758;2023-01-25T11:06:01;100768.34;;;3.77;98.55
7157;BME280;3620;49.862;8.758;2023-01-25T11:08:33;100763.13;;;3.78;97.27
7157;BME280;3620;49.862;8.758;2023-01-25T11:11:13;100762.41;;;4.05;97.12
7157;BME280;3620;49.862;8.758;2023-01-25T11:13:40;100758.38;;;3.23;100.00
7157;BME280;3620;49.862;8.758;2023-01-25T11:16:18;100746.25;;;3.22;100.00
7157;BME280;3620;49.862;8.758;2023-01-25T11:18:50;100745.28;;;3.14;100.00
7157;BME280;3620;49.862;8.758;2023-01-25T11:21:20;100750.09;;;2.71;100.00
7157;BME280;3620;49.862;8.758;2023-01-25T11:24:02;100741.56;;;2.84;100.00
7157;BME280;3620;49.862;8.758;2023-01-25T11:26:31;100737.28;;;2.89;100.00
7157;BME280;3620;49.862;8.758;2023-01-25T11:29:11;100731.38;;;3.07;100.00
7157;BME280;3620;49.862;8.758;2023-01-25T11:31:38;100732.44;;;3.32;100.00
7157;BME280;3620;49.862;8.758;2023-01-25T11:34:09;100727.22;;;3.27;100.00
7157;BME280;3620;49.862;8.758;2023-01-25T11:36:45;100724.69;;;3.33;100.00
7157;BME280;3620;49.862;8.758;2023-01-25T11:39:23;100722.84;;;3.25;100.00
7157;BME280;3620;49.862;8.758;2023-01-25T11:42:02;100721.16;;;3.30;100.00
7157;BME280;3620;49.862;8.758;2023-01-25T11:47:53;100711.72;;;3.39;100.00
7157;BME280;3620;49.862;8.758;2023-01-25T11:50:30;100705.47;;;3.13;100.00
7157;BME280;3620;49.862;8.758;2023-01-25T11:53:16;100705.53;;;3.24;100.00
7157;BME280;3620;49.862;8.758;2023-01-25T11:55:51;100697.00;;;3.41;100.00
7157;BME280;3620;49.862;8.758;2023-01-25T11:58:35;100690.03;;;3.39;100.00
7157;BME280;3620;49.862;8.758;2023-01-25T12:01:10;100688.22;;;3.26;100.00
7157;BME280;3620;49.862;8.758;2023-01-25T12:06:55;100681.16;;;3.07;100.00
7157;BME280;3620;49.862;8.758;2023-01-25T12:09:54;100671.00;;;3.46;100.00
7157;BME280;3620;49.862;8.758;2023-01-25T12:12:37;100662.06;;;3.08;100.00
7157;BME280;3620;49.862;8.758;2023-01-25T12:15:19;100651.69;;;3.09;100.00
7157;BME280;3620;49.862;8.758;2023-01-25T12:18:04;100643.84;;;3.05;100.00
7157;BME280;3620;49.862;8.758;2023-01-25T12:20:54;100637.81;;;3.06;100.00
7157;BME280;3620;49.862;8.758;2023-01-25T12:23:43;100636.13;;;3.14;100.00
7157;BME280;3620;49.862;8.758;2023-01-25T12:26:22;100627.50;;;3.18;100.00
7157;BME280;3620;49.862;8.758;2023-01-25T12:28:58;100621.31;;;3.05;100.00
7157;BME280;3620;49.862;8.758;2023-01-25T12:31:35;100615.34;;;3.17;100.00
7157;BME280;3620;49.862;8.758;2023-01-25T12:34:08;100616.16;;;3.08;100.00
7157;BME280;3620;49.862;8.758;2023-01-25T12:36:39;100611.13;;;3.34;100.00
7157;BME280;3620;49.862;8.758;2023-01-25T12:39:11;100602.50;;;3.44;100.00
7157;BME280;3620;49.862;8.758;2023-01-25T12:41:42;100604.09;;;3.19;100.00
7157;BME280;3620;49.862;8.758;2023-01-25T12:44:18;100598.16;;;3.40;100.00
7157;BME280;3620;49.862;8.758;2023-01-25T12:46:51;100594.66;;;3.35;100.00
7157;BME280;3620;49.862;8.758;2023-01-25T12:49:25;100598.06;;;3.22;100.00
7157;BME280;3620;49.862;8.758;2023-01-25T12:51:55;100594.53;;;3.14;100.00
7157;BME280;3620;49.862;8.758;2023-01-25T12:54:28;100583.34;;;3.25;100.00
7157;BME280;3620;49.862;8.758;2023-01-25T12:57:06;100585.84;;;3.12;100.00
7157;BME280;3620;49.862;8.758;2023-01-25T12:59:42;100583.22;;;3.06;100.00
7157;BME280;3620;49.862;8.758;2023-01-25T13:02:25;100578.88;;;3.02;100.00
7157;BME280;3620;49.862;8.758;2023-01-25T13:05:00;100578.09;;;3.18;100.00
7157;BME280;3620;49.862;8.758;2023-01-25T13:07:34;100577.38;;;3.47;100.00
7157;BME280;3620;49.862;8.758;2023-01-25T13:10:12;100567.03;;;3.55;100.00
7157;BME280;3620;49.862;8.758;2023-01-25T13:12:51;100569.56;;;3.46;98.68
7157;BME280;3620;49.862;8.758;2023-01-25T13:15:38;100561.81;;;3.58;99.45
7157;BME280;3620;49.862;8.758;2023-01-25T13:18:38;100555.75;;;3.54;98.46
7157;BME280;3620;49.862;8.758;2023-01-25T13:21:11;100544.53;;;3.72;97.54
7157;BME280;3620;49.862;8.758;2023-01-25T13:24:18;100559.13;;;3.37;98.81
7157;BME280;3620;49.862;8.758;2023-01-25T13:29:56;100534.03;;;3.42;100.00
7157;BME280;3620;49.862;8.758;2023-01-25T13:32:52;100531.44;;;3.54;99.80
7157;BME280;3620;49.862;8.758;2023-01-25T13:35:25;100525.34;;;3.49;98.74
7157;BME280;3620;49.862;8.758;2023-01-25T13:37:57;100521.94;;;3.59;98.70
7157;BME280;3620;49.862;8.758;2023-01-25T13:40:31;100513.22;;;3.48;97.81
7157;BME280;3620;49.862;8.758;2023-01-25T13:42:59;100502.88;;;3.63;97.22